sensor_id;sensor_type;location;lat;lon;timestamp;pressure;altitude;pressure_sealevel;temperature;humidity
4398;BME280;2213;49.720;7.296;2022-12-07T00:02:09;98287.00;;;4.01;100.00
4398;BME280;2213;49.720;7.296;2022-12-07T00:04:39;98280.91;;;4.02;100.00
4398;BME280;2213;49.720;7.296;2022-12-07T00:07:08;98276.09;;;4.07;100.00
4398;BME280;2213;49.720;7.296;2022-12-07T00:09:40;98273.66;;;4.06;100.00
4398;BME280;2213;49.720;7.296;2022-12-07T00:12:10;98273.78;;;4.04;100.00
4398;BME280;2213;49.720;7.296;2022-12-07T00:14:39;98280.72;;;4.04;100.00
4398;BME280;2213;49.720;7.296;2022-12-07T00:17:08;98275.56;;;4.04;100.00
4398;BME280;2213;49.720;7.296;2022-12-07T00:19:37;98273.13;;;4.02;100.00
4398;BME280;2213;49.720;7.296;2022-12-07T00:22:07;98267.41;;;3.99;100.00
4398;BME280;2213;49.720;7.296;2022-12-07T00:24:38;98259.25;;;3.94;100.00
4398;BME280;2213;49.720;7.296;2022-12-07T00:27:07;98267.28;;;3.91;100.00
4398;BME280;2213;49.720;7.296;2022-12-07T00:29:36;98267.66;;;3.96;100.00
4398;BME280;2213;49.720;7.296;2022-12-07T00:32:05;98270.00;;;3.99;100.00
4398;BME280;2213;49.720;7.296;2022-12-07T00:34:35;98263.47;;;3.95;100.00
4398;BME280;2213;49.720;7.296;2022-12-07T00:37:04;98260.88;;;3.95;100.00
4398;BME280;2213;49.720;7.296;2022-12-07T00:39:33;98261.97;;;3.92;100.00
4398;BME280;2213;49.720;7.296;2022-12-07T00:42:04;98256.94;;;3.91;100.00
4398;BME280;2213;49.720;7.296;2022-12-07T00:44:34;98242.38;;;3.90;100.00
4398;BME280;2213;49.720;7.296;2022-12-07T00:47:03;98250.13;;;3.90;100.00
4398;BME280;2213;49.720;7.296;2022-12-07T00:49:33;98244.84;;;3.91;100.00
4398;BME280;2213;49.720;7.296;2022-12-07T00:52:02;98249.19;;;3.91;100.00
4398;BME280;2213;49.720;7.296;2022-12-07T00:54:31;98253.25;;;3.93;100.00
4398;BME280;2213;49.720;7.296;2022-12-07T00:57:02;98244.59;;;3.85;100.00
4398;BME280;2213;49.720;7.296;2022-12-07T00:59:31;98252.06;;;3.88;100.00
4398;BME280;2213;49.720;7.296;2022-12-07T01:02:00;98249.31;;;3.89;100.00
4398;BME280;2213;49.720;7.296;2022-12-07T01:04:33;98250.28;;;3.88;100.00
4398;BME280;2213;49.720;7.296;2022-12-07T01:07:02;98255.59;;;3.87;100.00
4398;BME280;2213;49.720;7.296;2022-12-07T01:09:31;98252.72;;;3.90;100.00
4398;BME280;2213;49.720;7.296;2022-12-07T01:12:03;98253.81;;;3.87;100.00
4398;BME280;2213;49.720;7.296;2022-12-07T01:14:34;98259.81;;;3.88;100.00
4398;BME280;2213;49.720;7.296;2022-12-07T01:17:03;98257.22;;;3.88;100.00
4398;BME280;2213;49.720;7.296;2022-12-07T01:19:33;98253.00;;;3.87;100.00
4398;BME280;2213;49.720;7.296;2022-12-07T01:22:03;98251.78;;;3.91;100.00
4398;BME280;2213;49.720;7.296;2022-12-07T01:24:32;98249.19;;;3.91;100.00
4398;BME280;2213;49.720;7.296;2022-12-07T01:27:03;98248.25;;;3.92;100.00
4398;BME280;2213;49.720;7.296;2022-12-07T01:29:32;98248.09;;;3.93;100.00
4398;BME280;2213;49.720;7.296;2022-12-07T01:32:01;98239.38;;;3.94;100.00
4398;BME280;2213;49.720;7.296;2022-12-07T01:34:31;98247.25;;;3.93;100.00
4398;BME280;2213;49.720;7.296;2022-12-07T01:37:00;98243.31;;;3.89;100.00
4398;BME280;2213;49.720;7.296;2022-12-07T01:39:30;98237.19;;;3.90;100.00
4398;BME280;2213;49.720;7.296;2022-12-07T01:42:00;98233.66;;;3.91;100.00
4398;BME280;2213;49.720;7.296;2022-12-07T01:44:31;98237.91;;;3.92;100.00
4398;BME280;2213;49.720;7.296;2022-12-07T01:47:02;98240.31;;;3.93;100.00
4398;BME280;2213;49.720;7.296;2022-12-07T01:49:37;98242.09;;;3.93;100.00
4398;BME280;2213;49.720;7.296;2022-12-07T01:52:18;98256.78;;;3.92;100.00
4398;BME280;2213;49.720;7.296;2022-12-07T01:54:54;98244.84;;;3.91;100.00
4398;BME280;2213;49.720;7.296;2022-12-07T01:57:24;98246.72;;;3.89;100.00
4398;BME280;2213;49.720;7.296;2022-12-07T01:59:57;98243.19;;;3.90;100.00
4398;BME280;2213;49.720;7.296;2022-12-07T02:02:32;98244.00;;;3.91;100.00
4398;BME280;2213;49.720;7.296;2022-12-07T02:05:04;98238.03;;;3.90;100.00
4398;BME280;2213;49.720;7.296;2022-12-07T02:07:36;98240.47;;;3.92;100.00
4398;BME280;2213;49.720;7.296;2022-12-07T02:10:16;98224.81;;;3.93;100.00
4398;BME280;2213;49.720;7.296;2022-12-07T02:12:51;98219.78;;;3.92;100.00
4398;BME280;2213;49.720;7.296;2022-12-07T02:15:34;98217.03;;;3.93;100.00
4398;BME280;2213;49.720;7.296;2022-12-07T02:18:16;98219.50;;;3.95;100.00
4398;BME280;2213;49.720;7.296;2022-12-07T02:20:58;98220.59;;;3.92;100.00
4398;BME280;2213;49.720;7.296;2022-12-07T02:24:18;98214.63;;;3.92;100.00
4398;BME280;2213;49.720;7.296;2022-12-07T02:27:23;98209.44;;;3.92;100.00
4398;BME280;2213;49.720;7.296;2022-12-07T02:30:03;98200.03;;;3.91;100.00
4398;BME280;2213;49.720;7.296;2022-12-07T02:32:48;98192.28;;;3.91;100.00
4398;BME280;2213;49.720;7.296;2022-12-07T02:35:25;98197.47;;;3.91;100.00
4398;BME280;2213;49.720;7.296;2022-12-07T02:38:08;98193.09;;;3.91;100.00
4398;BME280;2213;49.720;7.296;2022-12-07T02:40:48;98196.63;;;3.90;100.00
4398;BME280;2213;49.720;7.296;2022-12-07T02:43:24;98189.69;;;3.91;100.00
4398;BME280;2213;49.720;7.296;2022-12-07T02:46:00;98195.81;;;3.90;100.00
4398;BME280;2213;49.720;7.296;2022-12-07T02:48:35;98200.03;;;3.91;100.00
4398;BME280;2213;49.720;7.296;2022-12-07T02:51:06;98198.28;;;3.91;100.00
4398;BME280;2213;49.720;7.296;2022-12-07T02:53:38;98204.94;;;3.94;100.00
4398;BME280;2213;49.720;7.296;2022-12-07T02:56:16;98213.34;;;3.96;100.00
4398;BME280;2213;49.720;7.296;2022-12-07T02:59:06;98205.47;;;3.97;100.00
4398;BME280;2213;49.720;7.296;2022-12-07T03:01:50;98202.34;;;3.94;100.00
4398;BME280;2213;49.720;7.296;2022-12-07T03:04:42;98199.34;;;3.89;100.00
4398;BME280;2213;49.720;7.296;2022-12-07T03:07:26;98201.69;;;3.92;100.00
4398;BME280;2213;49.720;7.296;2022-12-07T03:10:07;98208.47;;;3.93;100.00
4398;BME280;2213;49.720;7.296;2022-12-07T03:12:46;98204.28;;;3.92;100.00
4398;BME280;2213;49.720;7.296;2022-12-07T03:15:29;98203.28;;;3.93;100.00
4398;BME280;2213;49.720;7.296;2022-12-07T03:18:04;98198.41;;;3.90;100.00
4398;BME280;2213;49.720;7.296;2022-12-07T03:20:38;98195.69;;;3.91;100.00
4398;BME280;2213;49.720;7.296;2022-12-07T03:23:09;98189.41;;;3.94;100.00
4398;BME280;2213;49.720;7.296;2022-12-07T03:25:43;98187.66;;;3.94;100.00
4398;BME280;2213;49.720;7.296;2022-12-07T03:28:18;98188.75;;;3.92;100.00
4398;BME280;2213;49.720;7.296;2022-12-07T03:30:56;98185.19;;;3.93;100.00
4398;BME280;2213;49.720;7.296;2022-12-07T03:33:32;98188.47;;;3.95;100.00
4398;BME280;2213;49.720;7.296;2022-12-07T03:36:09;98184.09;;;3.95;100.00
4398;BME280;2213;49.720;7.296;2022-12-07T03:38:46;98185.06;;;3.94;100.00
4398;BME280;2213;49.720;7.296;2022-12-07T03:41:23;98190.06;;;3.96;100.00
4398;BME280;2213;49.720;7.296;2022-12-07T03:43:55;98191.72;;;3.97;100.00
4398;BME280;2213;49.720;7.296;2022-12-07T03:46:36;98191.72;;;3.97;100.00
4398;BME280;2213;49.720;7.296;2022-12-07T03:49:16;98186.25;;;4.00;100.00
4398;BME280;2213;49.720;7.296;2022-12-07T03:51:55;98184.34;;;4.02;100.00
4398;BME280;2213;49.720;7.296;2022-12-07T03:54:33;98180.00;;;4.02;100.00
4398;BME280;2213;49.720;7.296;2022-12-07T03:57:06;98179.84;;;4.04;100.00
4398;BME280;2213;49.720;7.296;2022-12-07T03:59:39;98185.69;;;4.06;100.00
4398;BME280;2213;49.720;7.296;2022-12-07T04:02:13;98192.66;;;4.05;100.00
4398;BME280;2213;49.720;7.296;2022-12-07T04:04:44;98188.94;;;4.08;100.00
4398;BME280;2213;49.720;7.296;2022-12-07T04:07:14;98192.19;;;4.10;100.00
4398;BME280;2213;49.720;7.296;2022-12-07T04:09:44;98193.84;;;4.11;100.00
4398;BME280;2213;49.720;7.296;2022-12-07T04:12:13;98184.31;;;4.12;100.00
4398;BME280;2213;49.720;7.296;2022-12-07T04:14:43;98186.72;;;4.13;100.00
4398;BME280;2213;49.720;7.296;2022-12-07T04:17:13;98187.44;;;4.15;100.00
4398;BME280;2213;49.720;7.296;2022-12-07T04:19:44;98188.09;;;4.17;100.00
4398;BME280;2213;49.720;7.296;2022-12-07T04:22:14;98179.78;;;4.14;100.00
4398;BME280;2213;49.720;7.296;2022-12-07T04:24:43;98178.72;;;4.16;100.00
4398;BME280;2213;49.720;7.296;2022-12-07T04:27:12;98179.66;;;4.15;100.00
4398;BME280;2213;49.720;7.296;2022-12-07T04:29:42;98172.72;;;4.16;100.00
4398;BME280;2213;49.720;7.296;2022-12-07T04:32:12;98182.25;;;4.15;100.00
4398;BME280;2213;49.720;7.296;2022-12-07T04:34:43;98184.53;;;4.18;100.00
4398;BME280;2213;49.720;7.296;2022-12-07T04:37:12;98180.19;;;4.19;100.00
4398;BME280;2213;49.720;7.296;2022-12-07T04:39:41;98185.19;;;4.20;100.00
4398;BME280;2213;49.720;7.296;2022-12-07T04:42:12;98178.25;;;4.21;100.00
4398;BME280;2213;49.720;7.296;2022-12-07T04:44:41;98176.38;;;4.23;100.00
4398;BME280;2213;49.720;7.296;2022-12-07T04:47:12;98182.34;;;4.23;100.00
4398;BME280;2213;49.720;7.296;2022-12-07T04:49:43;98181.38;;;4.24;100.00
4398;BME280;2213;49.720;7.296;2022-12-07T04:52:11;98181.38;;;4.24;100.00
4398;BME280;2213;49.720;7.296;2022-12-07T04:54:39;98176.06;;;4.26;100.00
4398;BME280;2213;49.720;7.296;2022-12-07T04:57:08;98182.06;;;4.26;100.00
4398;BME280;2213;49.720;7.296;2022-12-07T04:59:38;98173.47;;;4.26;100.00
4398;BME280;2213;49.720;7.296;2022-12-07T05:02:12;98173.31;;;4.27;100.00
4398;BME280;2213;49.720;7.296;2022-12-07T05:04:42;98168.13;;;4.27;100.00
4398;BME280;2213;49.720;7.296;2022-12-07T05:07:12;98163.66;;;4.29;100.00
4398;BME280;2213;49.720;7.296;2022-12-07T05:09:42;98169.66;;;4.30;100.00
4398;BME280;2213;49.720;7.296;2022-12-07T05:12:11;98165.44;;;4.29;100.00
4398;BME280;2213;49.720;7.296;2022-12-07T05:14:40;98168.66;;;4.31;100.00
4398;BME280;2213;49.720;7.296;2022-12-07T05:17:12;98165.94;;;4.32;100.00
4398;BME280;2213;49.720;7.296;2022-12-07T05:19:43;98173.72;;;4.32;100.00
4398;BME280;2213;49.720;7.296;2022-12-07T05:22:13;98166.78;;;4.33;100.00
4398;BME280;2213;49.720;7.296;2022-12-07T05:24:43;98172.75;;;4.33;100.00
4398;BME280;2213;49.720;7.296;2022-12-07T05:27:13;98170.84;;;4.35;100.00
4398;BME280;2213;49.720;7.296;2022-12-07T05:29:43;98176.81;;;4.36;100.00
4398;BME280;2213;49.720;7.296;2022-12-07T05:32:12;98168.91;;;4.37;100.00
4398;BME280;2213;49.720;7.296;2022-12-07T05:34:43;98175.06;;;4.36;100.00
4398;BME280;2213;49.720;7.296;2022-12-07T05:37:14;98170.84;;;4.35;100.00
4398;BME280;2213;49.720;7.296;2022-12-07T05:39:44;98172.47;;;4.36;100.00
4398;BME280;2213;49.720;7.296;2022-12-07T05:42:13;98175.72;;;4.38;100.00
4398;BME280;2213;49.720;7.296;2022-12-07T05:44:45;98162.94;;;4.37;100.00
4398;BME280;2213;49.720;7.296;2022-12-07T05:47:16;98172.31;;;4.38;100.00
4398;BME280;2213;49.720;7.296;2022-12-07T05:49:46;98170.53;;;4.38;100.00
4398;BME280;2213;49.720;7.296;2022-12-07T05:52:15;98164.53;;;4.38;100.00
4398;BME280;2213;49.720;7.296;2022-12-07T05:54:44;98174.75;;;4.39;100.00
4398;BME280;2213;49.720;7.296;2022-12-07T05:57:13;98170.53;;;4.38;100.00
4398;BME280;2213;49.720;7.296;2022-12-07T05:59:42;98170.25;;;4.41;100.00
4398;BME280;2213;49.720;7.296;2022-12-07T06:02:13;98168.63;;;4.40;100.00
4398;BME280;2213;49.720;7.296;2022-12-07T06:04:46;98167.66;;;4.41;100.00
4398;BME280;2213;49.720;7.296;2022-12-07T06:07:16;98172.00;;;4.41;100.00
4398;BME280;2213;49.720;7.296;2022-12-07T06:09:47;98171.88;;;4.42;100.00
4398;BME280;2213;49.720;7.296;2022-12-07T06:12:18;98177.72;;;4.44;100.00
4398;BME280;2213;49.720;7.296;2022-12-07T06:15:02;98163.16;;;4.43;100.00
4398;BME280;2213;49.720;7.296;2022-12-07T06:17:33;98159.59;;;4.44;100.00
4398;BME280;2213;49.720;7.296;2022-12-07T06:20:05;98162.47;;;4.41;100.00
4398;BME280;2213;49.720;7.296;2022-12-07T06:22:36;98155.81;;;4.39;100.00
4398;BME280;2213;49.720;7.296;2022-12-07T06:25:08;98159.06;;;4.41;100.00
4398;BME280;2213;49.720;7.296;2022-12-07T06:27:38;98166.72;;;4.42;100.00
4398;BME280;2213;49.720;7.296;2022-12-07T06:30:10;98173.66;;;4.42;100.00
4398;BME280;2213;49.720;7.296;2022-12-07T06:32:40;98169.28;;;4.42;100.00
4398;BME280;2213;49.720;7.296;2022-12-07T06:35:11;98165.88;;;4.42;100.00
4398;BME280;2213;49.720;7.296;2022-12-07T06:37:41;98172.69;;;4.43;100.00
4398;BME280;2213;49.720;7.296;2022-12-07T06:40:11;98167.66;;;4.41;100.00
4398;BME280;2213;49.720;7.296;2022-12-07T06:42:42;98172.69;;;4.43;100.00
4398;BME280;2213;49.720;7.296;2022-12-07T06:45:11;98172.69;;;4.43;100.00
4398;BME280;2213;49.720;7.296;2022-12-07T06:47:41;98173.53;;;4.43;100.00
4398;BME280;2213;49.720;7.296;2022-12-07T06:50:16;98167.38;;;4.44;100.00
4398;BME280;2213;49.720;7.296;2022-12-07T06:52:45;98171.59;;;4.45;100.00
4398;BME280;2213;49.720;7.296;2022-12-07T06:55:16;98176.63;;;4.47;100.00
4398;BME280;2213;49.720;7.296;2022-12-07T06:57:46;98173.22;;;4.46;100.00
4398;BME280;2213;49.720;7.296;2022-12-07T07:00:17;98180.03;;;4.47;100.00
4398;BME280;2213;49.720;7.296;2022-12-07T07:02:50;98182.47;;;4.49;100.00
4398;BME280;2213;49.720;7.296;2022-12-07T07:05:21;98177.28;;;4.49;100.00
4398;BME280;2213;49.720;7.296;2022-12-07T07:07:50;98178.25;;;4.48;100.00
4398;BME280;2213;49.720;7.296;2022-12-07T07:10:39;98176.78;;;4.45;100.00
4398;BME280;2213;49.720;7.296;2022-12-07T07:13:09;98176.47;;;4.48;100.00
4398;BME280;2213;49.720;7.296;2022-12-07T07:15:39;98180.19;;;4.46;100.00
4398;BME280;2213;49.720;7.296;2022-12-07T07:18:08;98181.00;;;4.46;100.00
4398;BME280;2213;49.720;7.296;2022-12-07T07:20:39;98181.28;;;4.43;100.00
4398;BME280;2213;49.720;7.296;2022-12-07T07:23:08;98177.59;;;4.46;100.00
4398;BME280;2213;49.720;7.296;2022-12-07T07:25:38;98185.22;;;4.47;100.00
4398;BME280;2213;49.720;7.296;2022-12-07T07:28:08;98187.81;;;4.47;100.00
4398;BME280;2213;49.720;7.296;2022-12-07T07:30:37;98184.69;;;4.44;100.00
4398;BME280;2213;49.720;7.296;2022-12-07T07:33:07;98185.66;;;4.43;100.00
4398;BME280;2213;49.720;7.296;2022-12-07T07:35:40;98185.94;;;4.40;100.00
4398;BME280;2213;49.720;7.296;2022-12-07T07:38:10;98190.13;;;4.41;100.00
4398;BME280;2213;49.720;7.296;2022-12-07T07:40:40;98185.47;;;4.44;100.00
4398;BME280;2213;49.720;7.296;2022-12-07T07:43:09;98196.13;;;4.41;100.00
4398;BME280;2213;49.720;7.296;2022-12-07T07:45:40;98196.53;;;4.46;100.00
4398;BME280;2213;49.720;7.296;2022-12-07T07:48:11;98196.38;;;4.48;100.00
4398;BME280;2213;49.720;7.296;2022-12-07T07:50:43;98194.47;;;4.50;100.00
4398;BME280;2213;49.720;7.296;2022-12-07T07:53:13;98195.28;;;4.50;100.00
4398;BME280;2213;49.720;7.296;2022-12-07T07:55:50;98197.72;;;4.52;100.00
4398;BME280;2213;49.720;7.296;2022-12-07T07:58:19;98195.81;;;4.54;100.00
4398;BME280;2213;49.720;7.296;2022-12-07T08:00:49;98198.22;;;4.55;100.00
4398;BME280;2213;49.720;7.296;2022-12-07T08:03:18;98203.41;;;4.55;100.00
4398;BME280;2213;49.720;7.296;2022-12-07T08:05:50;98207.63;;;4.56;100.00
4398;BME280;2213;49.720;7.296;2022-12-07T08:08:20;98205.19;;;4.55;100.00
4398;BME280;2213;49.720;7.296;2022-12-07T08:10:50;98209.41;;;4.56;100.00
4398;BME280;2213;49.720;7.296;2022-12-07T08:13:20;98212.16;;;4.54;100.00
4398;BME280;2213;49.720;7.296;2022-12-07T08:15:57;98210.53;;;4.53;100.00
4398;BME280;2213;49.720;7.296;2022-12-07T08:18:27;98211.34;;;4.54;100.00
4398;BME280;2213;49.720;7.296;2022-12-07T08:21:01;98211.47;;;4.52;100.00
4398;BME280;2213;49.720;7.296;2022-12-07T08:23:31;98209.69;;;4.53;100.00
4398;BME280;2213;49.720;7.296;2022-12-07T08:26:09;98210.00;;;4.50;100.00
4398;BME280;2213;49.720;7.296;2022-12-07T08:28:40;98219.25;;;4.52;100.00
4398;BME280;2213;49.720;7.296;2022-12-07T08:31:14;98221.16;;;4.50;100.00
4398;BME280;2213;49.720;7.296;2022-12-07T08:33:44;98228.25;;;4.48;100.00
4398;BME280;2213;49.720;7.296;2022-12-07T08:36:15;98229.34;;;4.46;100.00
4398;BME280;2213;49.720;7.296;2022-12-07T08:38:44;98229.66;;;4.43;100.00
4398;BME280;2213;49.720;7.296;2022-12-07T08:41:33;98226.25;;;4.42;100.00
4398;BME280;2213;49.720;7.296;2022-12-07T08:44:03;98223.00;;;4.40;100.00
4398;BME280;2213;49.720;7.296;2022-12-07T08:46:37;98222.31;;;4.38;100.00
4398;BME280;2213;49.720;7.296;2022-12-07T08:49:12;98227.50;;;4.38;100.00
4398;BME280;2213;49.720;7.296;2022-12-07T08:51:44;98223.94;;;4.39;100.00
4398;BME280;2213;49.720;7.296;2022-12-07T08:54:16;98217.66;;;4.42;100.00
4398;BME280;2213;49.720;7.296;2022-12-07T08:56:48;98221.06;;;4.42;100.00
4398;BME280;2213;49.720;7.296;2022-12-07T08:59:27;98217.53;;;4.43;100.00
4398;BME280;2213;49.720;7.296;2022-12-07T09:01:57;98220.13;;;4.43;100.00
4398;BME280;2213;49.720;7.296;2022-12-07T09:04:26;98208.13;;;4.42;100.00
4398;BME280;2213;49.720;7.296;2022-12-07T09:06:57;98213.84;;;4.46;100.00
4398;BME280;2213;49.720;7.296;2022-12-07T09:09:27;98217.91;;;4.48;100.00
4398;BME280;2213;49.720;7.296;2022-12-07T09:11:56;98210.13;;;4.48;100.00
4398;BME280;2213;49.720;7.296;2022-12-07T09:14:26;98218.41;;;4.52;100.00
4398;BME280;2213;49.720;7.296;2022-12-07T09:17:05;98221.16;;;4.50;100.00
4398;BME280;2213;49.720;7.296;2022-12-07T09:19:35;98217.34;;;4.54;100.00
4398;BME280;2213;49.720;7.296;2022-12-07T09:22:07;98215.41;;;4.56;100.00
4398;BME280;2213;49.720;7.296;2022-12-07T09:24:36;98217.56;;;4.61;100.00
4398;BME280;2213;49.720;7.296;2022-12-07T09:27:05;98221.63;;;4.64;100.00
4398;BME280;2213;49.720;7.296;2022-12-07T09:29:34;98219.72;;;4.66;100.00
4398;BME280;2213;49.720;7.296;2022-12-07T09:32:02;98216.81;;;4.69;100.00
4398;BME280;2213;49.720;7.296;2022-12-07T09:34:38;98213.44;;;4.68;100.00
4398;BME280;2213;49.720;7.296;2022-12-07T09:37:09;98204.97;;;4.66;100.00
4398;BME280;2213;49.720;7.296;2022-12-07T09:39:40;98209.22;;;4.67;100.00
4398;BME280;2213;49.720;7.296;2022-12-07T09:42:28;98209.06;;;4.69;100.00
4398;BME280;2213;49.720;7.296;2022-12-07T09:44:59;98208.91;;;4.70;100.00
4398;BME280;2213;49.720;7.296;2022-12-07T09:47:29;98210.38;;;4.73;100.00
4398;BME280;2213;49.720;7.296;2022-12-07T09:50:11;98209.31;;;4.75;100.00
4398;BME280;2213;49.720;7.296;2022-12-07T09:52:46;98205.91;;;4.75;100.00
4398;BME280;2213;49.720;7.296;2022-12-07T09:55:24;98203.84;;;4.78;100.00
4398;BME280;2213;49.720;7.296;2022-12-07T09:57:55;98199.47;;;4.79;100.00
4398;BME280;2213;49.720;7.296;2022-12-07T10:00:25;98189.91;;;4.79;100.00
4398;BME280;2213;49.720;7.296;2022-12-07T10:02:58;98184.88;;;4.78;100.00
4398;BME280;2213;49.720;7.296;2022-12-07T10:05:35;98186.53;;;4.79;100.00
4398;BME280;2213;49.720;7.296;2022-12-07T10:08:09;98187.19;;;4.81;100.00
4398;BME280;2213;49.720;7.296;2022-12-07T10:10:39;98191.25;;;4.83;100.00
4398;BME280;2213;49.720;7.296;2022-12-07T10:13:10;98180.06;;;4.83;100.00
4398;BME280;2213;49.720;7.296;2022-12-07T10:15:50;98181.41;;;4.87;100.00
4398;BME280;2213;49.720;7.296;2022-12-07T10:18:28;98175.13;;;4.89;100.00
4398;BME280;2213;49.720;7.296;2022-12-07T10:21:22;98176.44;;;4.93;100.00
4398;BME280;2213;49.720;7.296;2022-12-07T10:24:05;98167.72;;;4.94;100.00
4398;BME280;2213;49.720;7.296;2022-12-07T10:26:36;98170.44;;;4.93;100.00
4398;BME280;2213;49.720;7.296;2022-12-07T10:29:18;98162.22;;;4.97;100.00
4398;BME280;2213;49.720;7.296;2022-12-07T10:31:56;98164.50;;;5.00;100.00
4398;BME280;2213;49.720;7.296;2022-12-07T10:34:28;98167.78;;;5.02;100.00
4398;BME280;2213;49.720;7.296;2022-12-07T10:37:17;98161.47;;;5.05;100.00
4398;BME280;2213;49.720;7.296;2022-12-07T10:39:51;98164.72;;;5.07;100.00
4398;BME280;2213;49.720;7.296;2022-12-07T10:42:26;98157.47;;;5.11;100.00
4398;BME280;2213;49.720;7.296;2022-12-07T10:45:09;98155.88;;;5.10;100.00
4398;BME280;2213;49.720;7.296;2022-12-07T10:47:49;98157.19;;;5.14;100.00
4398;BME280;2213;49.720;7.296;2022-12-07T10:50:52;98157.84;;;5.16;100.00
4398;BME280;2213;49.720;7.296;2022-12-07T10:53:39;98152.81;;;5.14;100.00
4398;BME280;2213;49.720;7.296;2022-12-07T10:56:36;98155.56;;;5.13;100.00
4398;BME280;2213;49.720;7.296;2022-12-07T10:59:42;98149.03;;;5.08;100.00
4398;BME280;2213;49.720;7.296;2022-12-07T11:03:06;98144.25;;;5.14;100.00
4398;BME280;2213;49.720;7.296;2022-12-07T11:05:50;98141.13;;;5.10;100.00
4398;BME280;2213;49.720;7.296;2022-12-07T11:08:41;98139.19;;;5.12;100.00
4398;BME280;2213;49.720;7.296;2022-12-07T11:11:23;98132.06;;;5.14;100.00
4398;BME280;2213;49.720;7.296;2022-12-07T11:14:12;98122.38;;;5.16;100.00
4398;BME280;2213;49.720;7.296;2022-12-07T11:16:55;98127.56;;;5.16;100.00
4398;BME280;2213;49.720;7.296;2022-12-07T11:19:43;98119.19;;;5.22;100.00
4398;BME280;2213;49.720;7.296;2022-12-07T11:22:26;98121.91;;;5.21;100.00
4398;BME280;2213;49.720;7.296;2022-12-07T11:25:17;98122.41;;;5.24;100.00
4398;BME280;2213;49.720;7.296;2022-12-07T11:28:13;98125.69;;;5.26;100.00
4398;BME280;2213;49.720;7.296;2022-12-07T11:30:56;98124.72;;;5.27;100.00
4398;BME280;2213;49.720;7.296;2022-12-07T11:33:34;98123.09;;;5.26;100.00
4398;BME280;2213;49.720;7.296;2022-12-07T11:36:30;98128.94;;;5.28;100.00
4398;BME280;2213;49.720;7.296;2022-12-07T11:39:03;98117.75;;;5.28;100.00
4398;BME280;2213;49.720;7.296;2022-12-07T11:41:37;98123.75;;;5.28;100.00
4398;BME280;2213;49.720;7.296;2022-12-07T11:44:31;98121.00;;;5.30;100.00
4398;BME280;2213;49.720;7.296;2022-12-07T11:47:09;98115.53;;;5.33;100.00
4398;BME280;2213;49.720;7.296;2022-12-07T11:49:47;98116.69;;;5.38;100.00
4398;BME280;2213;49.720;7.296;2022-12-07T11:52:30;98122.53;;;5.40;100.00
4398;BME280;2213;49.720;7.296;2022-12-07T11:55:02;98112.47;;;5.37;100.00
4398;BME280;2213;49.720;7.296;2022-12-07T11:57:41;98114.75;;;5.40;100.00
4398;BME280;2213;49.720;7.296;2022-12-07T12:00:17;98114.75;;;5.40;100.00
4398;BME280;2213;49.720;7.296;2022-12-07T12:02:52;98118.19;;;5.41;100.00
4398;BME280;2213;49.720;7.296;2022-12-07T12:05:25;98108.63;;;5.41;100.00
4398;BME280;2213;49.720;7.296;2022-12-07T12:08:11;98107.19;;;5.47;100.00
4398;BME280;2213;49.720;7.296;2022-12-07T12:11:18;98097.16;;;5.52;100.00
4398;BME280;2213;49.720;7.296;2022-12-07T12:14:22;98098.13;;;5.51;100.00
4398;BME280;2213;49.720;7.296;2022-12-07T12:17:30;98089.53;;;5.50;100.00
4398;BME280;2213;49.720;7.296;2022-12-07T12:20:17;98086.00;;;5.51;100.00
4398;BME280;2213;49.720;7.296;2022-12-07T12:22:53;98074.63;;;5.52;100.00
4398;BME280;2213;49.720;7.296;2022-12-07T12:25:27;98071.72;;;5.55;100.00
4398;BME280;2213;49.720;7.296;2022-12-07T12:27:59;98071.38;;;5.50;100.00
4398;BME280;2213;49.720;7.296;2022-12-07T12:30:35;98074.63;;;5.52;100.00
4398;BME280;2213;49.720;7.296;2022-12-07T12:33:16;98066.72;;;5.54;100.00
4398;BME280;2213;49.720;7.296;2022-12-07T12:36:23;98064.94;;;5.54;100.00
4398;BME280;2213;49.720;7.296;2022-12-07T12:39:11;98067.66;;;5.53;100.00
4398;BME280;2213;49.720;7.296;2022-12-07T12:41:57;98064.31;;;5.61;100.00
4398;BME280;2213;49.720;7.296;2022-12-07T12:45:11;98065.94;;;5.62;100.00
4398;BME280;2213;49.720;7.296;2022-12-07T12:47:58;98061.09;;;5.67;100.00
4398;BME280;2213;49.720;7.296;2022-12-07T12:50:33;98063.34;;;5.70;100.00
4398;BME280;2213;49.720;7.296;2022-12-07T12:53:23;98055.56;;;5.70;100.00
4398;BME280;2213;49.720;7.296;2022-12-07T12:56:33;98066.31;;;5.75;100.00
4398;BME280;2213;49.720;7.296;2022-12-07T12:59:25;98057.25;;;5.79;100.00
4398;BME280;2213;49.720;7.296;2022-12-07T13:02:09;98054.97;;;5.84;100.00
4398;BME280;2213;49.720;7.296;2022-12-07T13:04:55;98044.78;;;5.82;100.00
4398;BME280;2213;49.720;7.296;2022-12-07T13:08:00;98046.56;;;5.82;100.00
4398;BME280;2213;49.720;7.296;2022-12-07T13:10:42;98046.38;;;5.83;100.00
4398;BME280;2213;49.720;7.296;2022-12-07T13:13:32;98042.00;;;5.84;100.00
4398;BME280;2213;49.720;7.296;2022-12-07T13:16:40;98043.66;;;5.85;100.00
4398;BME280;2213;49.720;7.296;2022-12-07T13:19:58;98049.38;;;5.88;100.00
4398;BME280;2213;49.720;7.296;2022-12-07T13:22:53;98048.53;;;5.88;100.00
4398;BME280;2213;49.720;7.296;2022-12-07T13:25:46;98037.22;;;5.89;100.00
4398;BME280;2213;49.720;7.296;2022-12-07T13:28:19;98030.81;;;5.83;100.00
4398;BME280;2213;49.720;7.296;2022-12-07T13:31:22;98036.81;;;5.84;100.00
4398;BME280;2213;49.720;7.296;2022-12-07T13:33:54;98039.91;;;5.79;100.00
4398;BME280;2213;49.720;7.296;2022-12-07T13:36:26;98028.22;;;5.83;100.00
4398;BME280;2213;49.720;7.296;2022-12-07T13:38:58;98026.94;;;5.79;100.00
4398;BME280;2213;49.720;7.296;2022-12-07T13:41:30;98035.81;;;5.77;100.00
4398;BME280;2213;49.720;7.296;2022-12-07T13:44:02;98032.13;;;5.79;100.00
4398;BME280;2213;49.720;7.296;2022-12-07T13:46:46;98033.91;;;5.79;100.00
4398;BME280;2213;49.720;7.296;2022-12-07T13:49:23;98029.34;;;5.81;100.00
4398;BME280;2213;49.720;7.296;2022-12-07T13:51:55;98023.53;;;5.79;100.00
4398;BME280;2213;49.720;7.296;2022-12-07T13:54:45;98018.34;;;5.79;100.00
4398;BME280;2213;49.720;7.296;2022-12-07T13:57:16;98023.53;;;5.79;100.00
4398;BME280;2213;49.720;7.296;2022-12-07T13:59:46;98018.50;;;5.85;100.00
4398;BME280;2213;49.720;7.296;2022-12-07T14:02:22;98022.59;;;5.88;100.00
4398;BME280;2213;49.720;7.296;2022-12-07T14:05:10;98018.50;;;5.85;100.00
4398;BME280;2213;49.720;7.296;2022-12-07T14:07:54;98016.59;;;5.87;100.00
4398;BME280;2213;49.720;7.296;2022-12-07T14:10:25;98018.38;;;5.87;100.00